Moe, South Dakota
Current Conditions -  °F | °C
As of 7:35 PM on Tuesday 25 Nov 2014 (Local Time) from KORC Reporting Station
Overcast Overcast  
Wind Chill: -2°   Ceiling: 8500
Heat Index:   Visibility: 10mi
Dew Point: -6°   Wind: 9mph
Humidity: 56%   Direction: 150°SSE
Pressure: 29.87"   Gusts: NA
Location:  43.1282°N, 96.5674°W
Report Text: KORC 260135Z AUTO 15008KT 10SM OVC085 02/M06 A2987 RMK AO2
Loading
Personal Weather Stations






























Interactive Weather Map New forecast layout! Learn more

10-Day Weather Forecast

Advertisements
Track Severe Weather on mobile